Time;durP1;ratioP1;P1;durP2;ratioP2;P2;SDS_P1;SDS_P2;PMS_P1;PMS_P2;Temp;Humidity;BMP_temperature;BMP_pressure;BME280_temperature;BME280_humidity;BME280_pressure;Samples;Min_cycle;Max_cycle;Signal;HPM_P1;HPM_P2
2022/03/20 00:01:13;;;;;;;17.08;7.55;;;;;;;;;;6094489;23;20024;-93
2022/03/20 00:03:39;;;;;;;13.88;6.97;;;4.80;1.00;;;;;;6069523;23;20022;-84
2022/03/20 00:06:05;;;;;;;14.70;6.70;;;5.60;1.00;;;;;;6093965;23;20041;-85
2022/03/20 00:08:31;;;;;;;18.25;7.35;;;4.60;1.00;;;;;;6069065;23;20025;-86
2022/03/20 00:11:01;;;;;;;17.63;7.85;;;4.90;1.00;;;;;;6094733;23;20100;-83
2022/03/20 00:13:27;;;;;;;15.57;7.50;;;4.70;1.00;;;;;;6093955;23;20037;-83
2022/03/20 00:15:57;;;;;;;16.70;7.20;;;6.00;1.00;;;;;;6094819;23;20018;-83
2022/03/20 00:18:25;;;;;;;15.30;7.35;;;3.30;1.00;;;;;;6092891;23;20018;-84
2022/03/20 00:20:56;;;;;;;15.02;7.57;;;6.10;1.00;;;;;;6094203;23;20029;-84
2022/03/20 00:23:23;;;;;;;16.75;7.93;;;5.80;1.00;;;;;;6094740;23;20057;-83
2022/03/20 00:25:50;;;;;;;16.60;7.28;;;6.10;1.00;;;;;;6094527;23;20081;-83
2022/03/20 00:28:18;;;;;;;15.77;7.03;;;5.70;1.00;;;;;;6091974;23;20102;-84
2022/03/20 00:30:44;;;;;;;15.18;7.68;;;5.60;1.00;;;;;;6094579;23;20026;-83
2022/03/20 00:33:10;;;;;;;15.35;7.28;;;;;;;;;;6092941;23;20022;-83
2022/03/20 00:35:37;;;;;;;17.83;7.72;;;4.80;1.00;;;;;;6068314;23;20025;-84
2022/03/20 00:38:03;;;;;;;16.13;8.70;;;;;;;;;;6093982;23;20026;-84
2022/03/20 00:40:29;;;;;;;17.25;8.57;;;4.50;1.00;;;;;;6094217;23;20350;-83
2022/03/20 00:42:55;;;;;;;22.15;8.88;;;5.40;1.00;;;;;;6094803;23;20023;-83
2022/03/20 00:45:21;;;;;;;14.23;8.23;;;4.20;1.00;;;;;;6068382;23;20422;-84
2022/03/20 00:47:48;;;;;;;18.15;7.78;;;6.50;1.00;;;;;;6095578;23;20078;-83
2022/03/20 00:50:14;;;;;;;24.05;7.85;;;7.00;1.00;;;;;;6092243;23;20022;-84
2022/03/20 00:52:40;;;;;;;20.27;8.80;;;5.70;1.00;;;;;;6093986;23;20025;-84
2022/03/20 00:55:06;;;;;;;17.40;8.55;;;4.70;1.00;;;;;;6045843;23;20058;-84
2022/03/20 00:57:32;;;;;;;19.48;8.95;;;;;;;;;;6092488;23;20173;-83
2022/03/20 00:59:57;;;;;;;15.73;8.25;;;4.60;1.00;;;;;;6092904;23;20098;-84
2022/03/20 01:02:23;;;;;;;18.13;8.07;;;5.50;1.00;;;;;;6092977;23;20145;-84
2022/03/20 01:04:49;;;;;;;17.85;8.23;;;4.60;1.00;;;;;;6093458;23;20018;-84
2022/03/20 01:07:15;;;;;;;19.60;8.85;;;5.80;1.00;;;;;;6093837;23;20081;-84
2022/03/20 01:09:40;;;;;;;16.45;8.50;;;5.40;1.00;;;;;;6067158;23;20450;-83
2022/03/20 01:12:08;;;;;;;17.85;8.60;;;4.40;1.00;;;;;;6093866;23;20014;-84
2022/03/20 01:14:34;;;;;;;21.75;7.63;;;4.20;1.00;;;;;;6093068;23;20014;-84
2022/03/20 01:17:00;;;;;;;17.60;8.98;;;5.00;1.00;;;;;;6094551;23;20069;-84
2022/03/20 01:19:26;;;;;;;20.08;8.63;;;4.50;1.00;;;;;;6092243;23;20018;-84
2022/03/20 01:21:53;;;;;;;15.30;8.18;;;4.00;1.00;;;;;;6094595;23;20029;-83
2022/03/20 01:24:19;;;;;;;18.63;8.77;;;3.90;1.00;;;;;;6093331;23;20022;-84
2022/03/20 01:26:45;;;;;;;17.67;8.70;;;4.00;1.00;;;;;;6093909;23;20242;-84
2022/03/20 01:29:11;;;;;;;17.02;8.07;;;3.60;1.00;;;;;;6068539;23;20135;-84
2022/03/20 01:31:38;;;;;;;17.73;8.52;;;3.60;1.00;;;;;;6093471;23;20149;-83
2022/03/20 01:34:04;;;;;;;20.95;8.40;;;4.20;1.00;;;;;;6093128;23;20014;-84
2022/03/20 01:36:30;;;;;;;16.38;8.35;;;3.20;1.00;;;;;;6091235;23;20049;-83
2022/03/20 01:38:57;;;;;;;16.63;8.68;;;6.10;1.00;;;;;;6093754;23;20078;-83
2022/03/20 01:41:23;;;;;;;17.77;9.27;;;4.40;1.00;;;;;;6092677;23;20345;-84
2022/03/20 01:43:57;;;;;;;17.63;8.90;;;3.60;1.00;;;;;;6094085;23;20048;-84
2022/03/20 01:46:23;;;;;;;19.48;9.07;;;4.90;1.00;;;;;;6093302;23;20015;-84
2022/03/20 01:48:50;;;;;;;17.92;8.65;;;6.30;1.00;;;;;;6092729;23;20078;-84
2022/03/20 01:51:17;;;;;;;16.48;7.53;;;6.00;1.00;;;;;;6093531;23;20074;-82
2022/03/20 01:53:44;;;;;;;19.42;9.07;;;6.10;1.00;;;;;;6093267;23;20062;-84
2022/03/20 01:56:10;;;;;;;14.93;8.85;;;4.10;1.00;;;;;;6093448;23;20019;-84
2022/03/20 01:58:36;;;;;;;20.50;9.13;;;1.90;1.00;;;;;;6092816;23;20018;-84
2022/03/20 02:01:03;;;;;;;18.58;8.60;;;5.00;1.00;;;;;;6068052;23;20041;-83
2022/03/20 02:03:29;;;;;;;19.25;8.63;;;4.30;1.00;;;;;;6067764;23;20299;-84
2022/03/20 02:05:56;;;;;;;22.08;10.18;;;5.00;1.00;;;;;;6093008;23;20124;-83
2022/03/20 02:08:26;;;;;;;22.33;9.73;;;4.90;1.00;;;;;;6093660;23;20442;-85
2022/03/20 02:10:55;;;;;;;19.17;9.45;;;3.10;1.00;;;;;;6093754;23;20026;-84
2022/03/20 02:13:22;;;;;;;19.95;9.68;;;4.00;1.00;;;;;;6094165;23;20018;-84
2022/03/20 02:15:49;;;;;;;21.58;9.63;;;5.40;1.00;;;;;;6094247;23;20022;-83
2022/03/20 02:18:15;;;;;;;19.80;10.10;;;4.60;1.00;;;;;;6094425;23;20189;-84
2022/03/20 02:20:48;;;;;;;23.55;10.55;;;3.30;1.00;;;;;;6094915;23;20172;-83
2022/03/20 02:23:14;;;;;;;21.83;10.32;;;3.90;1.00;;;;;;6070062;23;20018;-84
2022/03/20 02:25:51;;;;;;;25.73;11.07;;;5.70;1.00;;;;;;6069415;23;20037;-83
2022/03/20 02:28:17;;;;;;;22.17;10.40;;;4.40;1.00;;;;;;6070347;23;20400;-84
2022/03/20 02:30:45;;;;;;;21.33;10.38;;;2.60;1.00;;;;;;6094664;23;20076;-84
2022/03/20 02:33:34;;;;;;;25.98;10.85;;;1.80;1.00;;;;;;6095971;23;20325;-84
2022/03/20 02:36:01;;;;;;;20.70;10.40;;;3.80;1.00;;;;;;6095332;23;20026;-83
2022/03/20 02:38:27;;;;;;;24.60;10.17;;;4.30;1.00;;;;;;6095930;23;20022;-83
2022/03/20 02:40:54;;;;;;;21.02;10.90;;;5.00;1.00;;;;;;6094038;23;20425;-86
2022/03/20 02:43:21;;;;;;;18.83;10.00;;;6.10;1.00;;;;;;6095264;23;20022;-84
2022/03/20 02:45:47;;;;;;;19.13;10.80;;;3.30;1.00;;;;;;6094869;23;20077;-84
2022/03/20 02:48:13;;;;;;;26.05;10.98;;;3.70;1.00;;;;;;6094858;23;20092;-88
2022/03/20 02:50:40;;;;;;;20.42;10.57;;;4.20;1.00;;;;;;6095134;23;20349;-84
2022/03/20 02:53:14;;;;;;;25.52;11.60;;;5.00;1.00;;;;;;6095707;23;20029;-84
2022/03/20 02:55:44;;;;;;;29.05;10.65;;;3.80;1.00;;;;;;6095355;23;20042;-85
2022/03/20 02:58:15;;;;;;;24.65;11.65;;;3.60;1.00;;;;;;6095905;23;20457;-83
2022/03/20 03:00:42;;;;;;;23.77;11.43;;;3.10;1.00;;;;;;6095083;23;20338;-84
2022/03/20 03:03:11;;;;;;;19.48;10.43;;;3.70;1.00;;;;;;6095638;23;20022;-86
2022/03/20 03:05:38;;;;;;;22.23;11.35;;;5.30;1.00;;;;;;6095483;23;20399;-85
2022/03/20 03:10:57;;;;;;;27.27;12.15;;;3.60;1.00;;;;;;6095511;23;20113;-84
2022/03/20 03:13:35;;;;;;;28.25;10.82;;;3.60;1.00;;;;;;6069631;23;20438;-84
2022/03/20 03:16:03;;;;;;;23.52;11.57;;;3.30;1.00;;;;;;6096219;23;20026;-85
2022/03/20 03:18:29;;;;;;;;;;;3.50;1.00;;;;;;6095315;23;20022;-92
2022/03/20 03:20:55;;;;;;;22.15;10.50;;;5.60;1.00;;;;;;6095199;23;19917;-87
2022/03/20 03:23:21;;;;;;;22.05;11.05;;;4.70;1.00;;;;;;6095086;23;20349;-84
2022/03/20 03:25:47;;;;;;;29.27;12.35;;;2.50;1.00;;;;;;6095221;23;20022;-83
2022/03/20 03:28:13;;;;;;;25.48;12.20;;;3.90;1.00;;;;;;6095638;23;20096;-83
2022/03/20 03:30:44;;;;;;;21.92;12.02;;;3.40;1.00;;;;;;6094221;23;20026;-84
2022/03/20 03:33:14;;;;;;;23.15;12.48;;;2.90;1.00;;;;;;6094818;23;20018;-83
2022/03/20 03:35:43;;;;;;;21.90;11.55;;;2.40;3.40;;;;;;6094253;23;20374;-83
2022/03/20 03:38:20;;;;;;;25.20;12.23;;;3.20;1.00;;;;;;6094751;23;20014;-84
2022/03/20 03:40:47;;;;;;;28.25;13.20;;;2.60;2.90;;;;;;6068896;23;20155;-84
2022/03/20 03:43:20;;;;;;;20.73;11.67;;;6.00;1.00;;;;;;6095525;23;20018;-83
2022/03/20 03:45:47;;;;;;;26.02;12.05;;;4.20;3.30;;;;;;6094717;23;20033;-87
2022/03/20 03:48:13;;;;;;;29.08;12.57;;;;;;;;;;6094455;23;20393;-84
2022/03/20 03:50:42;;;;;;;28.17;13.95;;;3.10;1.00;;;;;;6094923;23;20299;-84
2022/03/20 03:53:11;;;;;;;36.70;14.52;;;;;;;;;;6094983;23;20081;-84
2022/03/20 03:55:38;;;;;;;26.95;13.48;;;1.80;1.00;;;;;;6094650;23;20014;-83
2022/03/20 03:58:04;;;;;;;25.25;12.52;;;5.10;1.00;;;;;;6093616;23;20014;-84
2022/03/20 04:00:32;;;;;;;21.02;11.35;;;3.60;4.10;;;;;;6094470;23;20026;-83
2022/03/20 04:02:59;;;;;;;24.75;13.00;;;3.00;1.00;;;;;;6094606;23;20109;-84
2022/03/20 04:05:25;;;;;;;25.90;13.40;;;2.90;1.00;;;;;;6094910;23;20014;-83
2022/03/20 04:07:51;;;;;;;24.63;12.95;;;2.60;1.00;;;;;;6095271;23;20017;-84
2022/03/20 04:10:17;;;;;;;26.25;14.10;;;3.40;1.00;;;;;;6070118;23;20101;-84
2022/03/20 04:12:44;;;;;;;25.13;13.73;;;3.00;1.00;;;;;;6093939;23;20014;-84
2022/03/20 04:15:11;;;;;;;23.55;14.13;;;5.10;1.00;;;;;;6046121;23;20379;-84
2022/03/20 04:17:38;;;;;;;26.50;14.95;;;3.00;1.00;;;;;;6093800;23;20018;-85
2022/03/20 04:20:06;;;;;;;30.70;14.70;;;5.30;1.00;;;;;;6068925;23;20022;-84
2022/03/20 04:22:35;;;;;;;27.35;13.63;;;2.80;1.00;;;;;;6094283;23;20030;-84
2022/03/20 04:25:01;;;;;;;23.45;13.52;;;4.00;1.00;;;;;;6094582;23;20085;-83
2022/03/20 04:27:28;;;;;;;30.00;15.13;;;2.90;1.00;;;;;;6093880;23;20026;-83
2022/03/20 04:29:54;;;;;;;28.88;16.83;;;3.60;1.00;;;;;;6093630;23;20113;-84
2022/03/20 04:32:20;;;;;;;25.48;14.93;;;2.80;1.00;;;;;;6068333;23;20015;-88
2022/03/20 04:34:46;;;;;;;28.52;14.65;;;2.70;1.00;;;;;;6067497;23;20018;-84
2022/03/20 04:37:13;;;;;;;34.28;15.52;;;2.70;1.00;;;;;;6094476;23;20026;-87
2022/03/20 04:39:39;;;;;;;27.23;15.02;;;3.70;1.00;;;;;;6093991;23;20026;-83
2022/03/20 04:42:05;;;;;;;28.45;14.98;;;3.40;1.00;;;;;;6094485;23;20026;-84
2022/03/20 04:44:31;;;;;;;28.80;15.40;;;2.70;6.50;;;;;;6068270;23;20018;-87
2022/03/20 04:46:58;;;;;;;29.33;15.52;;;3.40;4.30;;;;;;6094548;23;20330;-84
2022/03/20 05:00:12;;;;;;;27.58;15.30;;;5.20;1.00;;;;;;6094007;23;20630;-84
2022/03/20 05:02:39;;;;;;;28.58;15.65;;;;;;;;;;6094296;23;20022;-83
2022/03/20 05:05:05;;;;;;;26.92;16.52;;;1.50;1.00;;;;;;6094026;23;20077;-84
2022/03/20 05:07:33;;;;;;;28.20;15.50;;;3.20;1.00;;;;;;6094932;23;20041;-84
2022/03/20 05:15:31;;;;;;;26.08;15.27;;;4.50;1.00;;;;;;6094652;23;20049;-84
2022/03/20 05:17:57;;;;;;;34.20;17.50;;;2.00;1.00;;;;;;6092928;23;20438;-88
2022/03/20 05:20:23;;;;;;;32.15;17.58;;;3.50;1.00;;;;;;6093095;23;20382;-86
2022/03/20 05:22:50;;;;;;;33.65;17.80;;;3.20;1.00;;;;;;6094106;23;20081;-84
2022/03/20 05:25:17;;;;;;;35.90;18.15;;;2.20;1.00;;;;;;6069290;23;20029;-84
2022/03/20 05:27:43;;;;;;;29.02;16.92;;;2.60;1.00;;;;;;6093576;23;20413;-87
2022/03/20 05:30:10;;;;;;;37.67;18.17;;;3.90;1.00;;;;;;6067952;23;20446;-85
2022/03/20 05:32:37;;;;;;;35.70;17.70;;;4.40;1.00;;;;;;6093129;23;20022;-83
2022/03/20 05:35:08;;;;;;;30.27;17.23;;;2.50;1.00;;;;;;6093351;23;20351;-83
2022/03/20 05:37:35;;;;;;;32.75;16.67;;;2.60;1.00;;;;;;6094085;23;20086;-83
2022/03/20 05:40:01;;;;;;;29.25;16.92;;;3.90;1.00;;;;;;6066683;23;20491;-83
2022/03/20 05:42:26;;;;;;;36.22;18.17;;;3.00;1.00;;;;;;6093601;23;20402;-84
2022/03/20 05:44:52;;;;;;;37.35;20.60;;;3.40;1.00;;;;;;6093440;23;20030;-83
2022/03/20 05:47:18;;;;;;;33.05;18.52;;;2.40;1.00;;;;;;6093696;23;20022;-84
2022/03/20 05:49:44;;;;;;;35.22;18.05;;;3.50;1.00;;;;;;6093571;23;20029;-84
2022/03/20 05:52:09;;;;;;;32.95;17.95;;;2.60;1.00;;;;;;6093319;23;20369;-83
2022/03/20 05:54:35;;;;;;;31.27;18.60;;;2.40;1.00;;;;;;6094012;23;20018;-83
2022/03/20 05:59:45;;;;;;;33.80;19.63;;;2.50;1.00;;;;;;6094125;23;20030;-83
2022/03/20 06:02:12;;;;;;;32.83;19.23;;;1.70;1.00;;;;;;6093697;23;20095;-83
2022/03/20 06:04:38;;;;;;;32.00;19.15;;;3.10;1.00;;;;;;6068222;23;20026;-83
2022/03/20 06:07:05;;;;;;;28.35;17.38;;;2.40;1.00;;;;;;6091407;23;20022;-83
2022/03/20 06:09:31;;;;;;;32.13;17.55;;;5.10;1.00;;;;;;6093969;23;20023;-83
2022/03/20 06:11:57;;;;;;;34.63;18.33;;;2.80;1.00;;;;;;6093177;23;20085;-83
2022/03/20 06:14:23;;;;;;;31.20;16.65;;;3.10;1.00;;;;;;6093650;23;20037;-84
2022/03/20 06:16:49;;;;;;;34.13;18.13;;;1.90;1.00;;;;;;6093515;23;20022;-84
2022/03/20 06:19:16;;;;;;;32.38;17.65;;;2.30;1.00;;;;;;6067508;23;20014;-83
2022/03/20 06:21:43;;;;;;;29.83;16.92;;;2.60;1.00;;;;;;6067966;23;20105;-83
2022/03/20 06:24:09;;;;;;;29.17;18.30;;;2.60;1.00;;;;;;6092377;23;20347;-83
2022/03/20 06:26:35;;;;;;;35.25;19.90;;;2.80;1.00;;;;;;6093624;23;20027;-83
2022/03/20 06:29:02;;;;;;;32.92;19.63;;;3.00;1.00;;;;;;6093061;23;20418;-83
2022/03/20 06:31:27;;;;;;;34.95;18.98;;;3.70;1.00;;;;;;6093748;23;20049;-87
2022/03/20 06:33:56;;;;;;;35.38;18.73;;;2.30;1.00;;;;;;6092358;23;20022;-83
2022/03/20 06:36:21;;;;;;;36.45;20.25;;;2.80;1.00;;;;;;6044193;23;20018;-84
2022/03/20 06:38:47;;;;;;;31.60;19.67;;;2.90;1.00;;;;;;6093657;23;20118;-83
2022/03/20 06:41:13;;;;;;;37.50;19.33;;;2.90;1.00;;;;;;6093577;23;20030;-84
2022/03/20 06:43:39;;;;;;;31.17;18.98;;;5.60;1.00;;;;;;6092692;23;20015;-83
2022/03/20 06:46:07;;;;;;;35.10;19.20;;;4.90;1.00;;;;;;6092957;23;20119;-83
2022/03/20 06:48:34;;;;;;;31.17;18.15;;;2.90;1.00;;;;;;6093771;23;20021;-83
2022/03/20 06:51:00;;;;;;;37.10;18.52;;;;;;;;;;6093017;23;20127;-84
2022/03/20 06:53:26;;;;;;;31.13;18.08;;;3.10;1.00;;;;;;6094003;23;20025;-83
2022/03/20 06:55:53;;;;;;;36.30;20.20;;;3.20;1.00;;;;;;6093004;23;20061;-90
2022/03/20 06:58:20;;;;;;;32.00;19.20;;;3.90;1.00;;;;;;6093896;23;20382;-83
2022/03/20 07:00:46;;;;;;;35.67;19.50;;;5.30;1.00;;;;;;6093237;23;20022;-84
2022/03/20 07:03:13;;;;;;;33.17;18.90;;;;;;;;;;6093255;23;20243;-83
2022/03/20 07:05:39;;;;;;;32.17;18.52;;;3.50;1.00;;;;;;6095114;23;20022;-83
2022/03/20 07:08:06;;;;;;;36.33;18.23;;;3.50;1.00;;;;;;6095502;23;20022;-83
2022/03/20 07:10:33;;;;;;;32.72;19.08;;;3.60;1.00;;;;;;6095940;23;20029;-84
2022/03/20 07:15:45;;;;;;;34.03;19.63;;;4.60;1.00;;;;;;6095326;23;20086;-82
2022/03/20 07:18:12;;;;;;;32.80;19.58;;;4.10;1.00;;;;;;6069004;23;20015;-83
2022/03/20 07:20:43;;;;;;;33.60;18.52;;;3.90;1.00;;;;;;6095411;23;20022;-82
2022/03/20 07:23:09;;;;;;;36.33;18.05;;;4.40;1.00;;;;;;6094845;23;20019;-82
2022/03/20 07:31:05;;;;;;;25.65;15.38;;;4.60;1.00;;;;;;6095069;23;20030;-84
2022/03/20 07:33:32;;;;;;;34.88;18.60;;;5.10;1.00;;;;;;6095199;23;20018;-83
2022/03/20 07:35:59;;;;;;;27.35;16.00;;;4.50;1.00;;;;;;6095039;23;20030;-84
2022/03/20 07:38:26;;;;;;;34.58;18.98;;;4.50;1.00;;;;;;6064090;23;20027;-82
2022/03/20 07:40:52;;;;;;;31.98;16.48;;;6.70;1.00;;;;;;6066457;23;20023;-83
2022/03/20 07:43:18;;;;;;;30.95;18.05;;;4.40;1.00;;;;;;6063808;23;20106;-82
2022/03/20 07:45:44;;;;;;;34.60;18.58;;;4.60;1.00;;;;;;6066008;23;20058;-83
2022/03/20 07:48:10;;;;;;;32.20;18.42;;;4.70;1.00;;;;;;6064603;23;20439;-83
2022/03/20 07:50:36;;;;;;;30.67;17.50;;;4.70;1.00;;;;;;6066214;23;20067;-83
2022/03/20 07:53:03;;;;;;;35.00;16.65;;;5.00;1.00;;;;;;6066310;23;20031;-82
2022/03/20 07:55:29;;;;;;;30.55;17.98;;;7.10;1.00;;;;;;6064026;23;20022;-84
2022/03/20 07:57:57;;;;;;;31.00;16.33;;;7.90;1.00;;;;;;6088071;23;20102;-83
2022/03/20 08:00:24;;;;;;;32.55;18.10;;;9.40;1.00;;;;;;6065759;23;20426;-86
2022/03/20 08:02:51;;;;;;;29.48;14.95;;;8.40;1.00;;;;;;6066044;23;20015;-84
2022/03/20 08:05:17;;;;;;;31.95;16.25;;;11.50;1.00;;;;;;6065396;23;20054;-84
2022/03/20 08:07:43;;;;;;;31.65;15.68;;;10.10;1.00;;;;;;6063944;23;20434;-83
2022/03/20 08:10:11;;;;;;;28.75;16.45;;;9.80;1.00;;;;;;6065985;23;20073;-84
2022/03/20 08:12:38;;;;;;;36.42;16.88;;;9.20;1.00;;;;;;6066501;23;20098;-82
2022/03/20 08:15:06;;;;;;;31.70;16.80;;;9.40;1.00;;;;;;6040137;23;20296;-83
2022/03/20 08:17:32;;;;;;;30.50;16.70;;;10.00;1.00;;;;;;6064986;23;20136;-83
2022/03/20 08:19:58;;;;;;;30.65;16.42;;;10.50;1.00;;;;;;6065829;23;20018;-83
2022/03/20 08:22:27;;;;;;;29.35;16.80;;;10.70;1.00;;;;;;6065235;23;20025;-82
2022/03/20 08:24:53;;;;;;;32.33;17.05;;;10.80;1.00;;;;;;6063573;23;20019;-82
2022/03/20 08:27:20;;;;;;;28.73;16.60;;;10.90;1.00;;;;;;6064102;23;20022;-82
2022/03/20 08:29:47;;;;;;;26.13;15.18;;;13.00;1.00;;;;;;6066489;23;20091;-83
2022/03/20 08:32:13;;;;;;;26.70;16.05;;;11.50;1.00;;;;;;6065520;23;20035;-87
2022/03/20 08:34:38;;;;;;;30.95;17.65;;;11.60;1.00;;;;;;6065288;23;20388;-83
2022/03/20 08:37:04;;;;;;;29.70;17.08;;;12.20;1.00;;;;;;6087832;23;20022;-91
2022/03/20 08:39:30;;;;;;;26.40;16.00;;;12.30;1.00;;;;;;6084741;23;20086;-83
2022/03/20 08:41:56;;;;;;;28.10;16.42;;;12.40;1.00;;;;;;6093364;23;20014;-83
2022/03/20 08:44:26;;;;;;;31.65;15.82;;;12.10;1.00;;;;;;6068052;23;20029;-87
2022/03/20 08:46:52;;;;;;;31.25;16.60;;;11.90;1.00;;;;;;6095161;23;20018;-83
2022/03/20 08:49:19;;;;;;;30.50;16.33;;;12.10;1.00;;;;;;6092943;23;20045;-82
2022/03/20 08:51:45;;;;;;;27.83;16.05;;;10.60;1.00;;;;;;6094475;23;20090;-84
2022/03/20 08:54:13;;;;;;;30.55;16.23;;;14.10;1.00;;;;;;6068200;23;20027;-91
2022/03/20 08:56:39;;;;;;;30.48;18.05;;;12.60;1.00;;;;;;6021278;23;20042;-84
2022/03/20 08:59:06;;;;;;;27.45;16.85;;;12.80;1.00;;;;;;6093978;23;20020;-85
2022/03/20 09:01:32;;;;;;;32.88;16.90;;;12.90;1.00;;;;;;6094496;23;20014;-83
2022/03/20 09:03:58;;;;;;;31.63;15.27;;;13.20;1.00;;;;;;6094599;23;20019;-83
2022/03/20 09:06:24;;;;;;;30.25;17.08;;;12.90;1.00;;;;;;6094075;23;20081;-83
2022/03/20 09:08:50;;;;;;;27.65;15.68;;;13.40;99.90;;;;;;6069110;23;20152;-84
2022/03/20 09:11:19;;;;;;;30.55;17.63;;;13.60;1.00;;;;;;6094763;23;20026;-83
2022/03/20 09:13:45;;;;;;;29.75;16.65;;;14.00;99.90;;;;;;6094453;23;20426;-83
2022/03/20 09:19:07;;;;;;;31.05;16.85;;;14.10;99.90;;;;;;6094298;23;20021;-83
2022/03/20 09:21:37;;;;;;;32.25;17.17;;;14.00;99.90;;;;;;6094796;23;20041;-84
2022/03/20 09:24:05;;;;;;;26.88;16.75;;;14.30;99.90;;;;;;6044976;23;20054;-83
2022/03/20 09:26:31;;;;;;;29.55;17.58;;;14.30;99.90;;;;;;6094298;23;20022;-84
2022/03/20 09:28:57;;;;;;;32.42;18.67;;;14.80;99.90;;;;;;6069544;23;20025;-85
2022/03/20 09:31:24;;;;;;;28.20;16.45;;;14.90;99.90;;;;;;6094133;23;20017;-84
2022/03/20 09:33:51;;;;;;;30.73;18.02;;;15.10;99.90;;;;;;6068336;23;20015;-84
2022/03/20 09:36:16;;;;;;;30.92;17.02;;;15.40;99.90;;;;;;6094105;23;20014;-83
2022/03/20 09:38:42;;;;;;;27.83;17.48;;;15.50;99.90;;;;;;6093971;23;20457;-83
2022/03/20 09:41:09;;;;;;;27.95;16.80;;;14.90;99.90;;;;;;6064939;23;20069;-85
2022/03/20 09:43:40;;;;;;;29.80;18.48;;;14.70;99.90;;;;;;6093811;23;20040;-84
2022/03/20 09:46:06;;;;;;;29.88;16.98;;;14.70;99.90;;;;;;6094318;23;20018;-82
2022/03/20 09:48:33;;;;;;;29.42;17.73;;;15.50;99.90;;;;;;6092976;23;20295;-82
2022/03/20 09:51:01;;;;;;;38.65;19.77;;;14.30;99.90;;;;;;6093740;23;20014;-84
2022/03/20 09:53:27;;;;;;;31.02;18.48;;;14.20;99.90;;;;;;6067524;23;20011;-81
2022/03/20 09:55:56;;;;;;;30.30;18.55;;;14.30;99.90;;;;;;6092659;23;20102;-83
2022/03/20 09:58:27;;;;;;;33.75;16.30;;;14.20;99.90;;;;;;6066699;23;20014;-84
2022/03/20 10:00:54;;;;;;;30.48;18.95;;;13.50;99.90;;;;;;6068163;23;20026;-82
2022/03/20 10:03:21;;;;;;;31.03;18.40;;;13.90;99.90;;;;;;6091880;23;20019;-83
2022/03/20 10:06:17;;;;;;;32.20;18.70;;;14.30;99.90;;;;;;6068769;23;20321;-82
2022/03/20 10:08:59;;;;;;;34.10;18.38;;;14.80;99.90;;;;;;6093867;23;20410;-84
2022/03/20 10:11:25;;;;;;;32.85;19.15;;;14.60;99.90;;;;;;6067831;23;20022;-83
2022/03/20 10:14:08;;;;;;;36.42;19.77;;;14.40;99.90;;;;;;6093383;23;20030;-84
2022/03/20 10:16:36;;;;;;;28.20;17.90;;;14.80;99.90;;;;;;6093695;23;20018;-84
2022/03/20 10:19:01;;;;;;;32.63;18.95;;;15.60;99.90;;;;;;6093809;23;20014;-84
2022/03/20 10:21:52;;;;;;;33.45;18.35;;;15.40;99.90;;;;;;6067865;23;20081;-84
2022/03/20 10:24:21;;;;;;;33.50;19.30;;;15.00;99.90;;;;;;6093286;23;20024;-84
2022/03/20 10:27:00;;;;;;;29.20;19.25;;;15.10;99.90;;;;;;6043753;23;20086;-83
2022/03/20 10:29:27;;;;;;;30.30;18.77;;;15.00;99.90;;;;;;6093588;23;20014;-83
2022/03/20 10:31:56;;;;;;;32.63;18.77;;;15.60;99.90;;;;;;6093980;23;20058;-83
2022/03/20 10:34:25;;;;;;;31.15;17.88;;;16.10;99.90;;;;;;6091457;23;20026;-82
2022/03/20 10:36:52;;;;;;;30.65;19.38;;;16.60;99.90;;;;;;6068479;23;20446;-83
2022/03/20 10:39:20;;;;;;;29.42;18.10;;;16.30;99.90;;;;;;6092918;23;20350;-84
2022/03/20 10:41:53;;;;;;;34.45;19.13;;;16.00;99.90;;;;;;6070574;23;20022;-83
2022/03/20 10:44:23;;;;;;;33.92;20.55;;;16.60;99.90;;;;;;6095100;23;20456;-83
2022/03/20 10:47:10;;;;;;;33.17;18.50;;;16.70;99.90;;;;;;6096293;23;20454;-83
2022/03/20 10:49:37;;;;;;;33.38;18.67;;;16.70;99.90;;;;;;6068938;23;20018;-83
2022/03/20 10:52:12;;;;;;;36.92;20.40;;;17.00;99.90;;;;;;6046243;23;20481;-83
2022/03/20 10:54:58;;;;;;;36.15;18.88;;;16.80;99.90;;;;;;6069619;23;20058;-82
2022/03/20 10:57:36;;;;;;;34.20;20.40;;;16.30;99.90;;;;;;6088644;23;20037;-86
2022/03/20 11:00:10;;;;;;;35.25;19.13;;;16.20;99.90;;;;;;6095550;23;20406;-84
2022/03/20 11:02:39;;;;;;;32.08;19.95;;;17.00;99.90;;;;;;6095231;23;20304;-82
2022/03/20 11:05:05;;;;;;;32.75;20.10;;;17.30;99.90;;;;;;6095034;23;20118;-83
2022/03/20 11:07:31;;;;;;;32.03;20.42;;;17.70;99.90;;;;;;6095298;23;20094;-85
2022/03/20 11:10:00;;;;;;;29.08;18.80;;;17.80;99.90;;;;;;6046089;23;20162;-83
2022/03/20 11:12:33;;;;;;;32.42;20.92;;;18.10;99.90;;;;;;6069792;23;20026;-82
2022/03/20 11:15:03;;;;;;;30.35;18.83;;;18.10;99.90;;;;;;6095428;23;20414;-81
2022/03/20 11:17:46;;;;;;;33.78;19.65;;;17.50;99.90;;;;;;6094638;23;20022;-83
2022/03/20 11:20:14;;;;;;;37.78;18.55;;;17.00;99.90;;;;;;6069034;23;20436;-83
2022/03/20 11:22:52;;;;;;;35.40;20.70;;;17.30;99.90;;;;;;6094772;23;20067;-83
2022/03/20 11:25:24;;;;;;;33.13;20.38;;;17.70;99.90;;;;;;6093311;23;20085;-89
2022/03/20 11:28:01;;;;;;;34.60;19.23;;;17.40;99.90;;;;;;6095457;23;20014;-82
2022/03/20 11:30:29;;;;;;;35.40;20.27;;;17.30;99.90;;;;;;6068605;23;20097;-82
2022/03/20 11:33:00;;;;;;;35.28;22.30;;;16.30;99.90;;;;;;6095165;23;20014;-84
2022/03/20 11:35:31;;;;;;;33.17;21.17;;;15.60;99.90;;;;;;6094331;23;20062;-84
2022/03/20 11:38:23;;;;;;;35.42;21.77;;;14.60;99.90;;;;;;6094607;23;20145;-84
2022/03/20 11:41:17;;;;;;;39.92;22.80;;;14.70;99.90;;;;;;6095244;23;20022;-85
2022/03/20 11:44:21;;;;;;;31.15;19.95;;;14.60;99.90;;;;;;6094739;23;20022;-83
2022/03/20 11:47:12;;;;;;;35.70;21.60;;;15.30;99.90;;;;;;6095459;23;20165;-83
2022/03/20 11:49:40;;;;;;;36.53;20.73;;;15.20;99.90;;;;;;6092564;23;20041;-84
2022/03/20 11:52:09;;;;;;;39.15;21.15;;;15.40;99.90;;;;;;6095160;23;20353;-83
2022/03/20 11:54:40;;;;;;;34.05;19.80;;;15.50;99.90;;;;;;6068546;23;20026;-83
2022/03/20 11:57:24;;;;;;;31.75;20.73;;;15.90;99.90;;;;;;6094235;23;20290;-86
2022/03/20 11:59:54;;;;;;;39.17;20.65;;;16.20;99.90;;;;;;6095278;23;20023;-82
2022/03/20 12:02:23;;;;;;;34.70;21.42;;;16.10;99.90;;;;;;6092304;23;20116;-85
2022/03/20 12:05:26;;;;;;;33.28;20.83;;;16.60;99.90;;;;;;6094732;23;20108;-82
2022/03/20 12:08:08;;;;;;;35.75;21.63;;;15.90;99.90;;;;;;6069079;23;20026;-83
2022/03/20 12:10:49;;;;;;;32.53;20.65;;;14.80;99.90;;;;;;6069208;23;20131;-83
2022/03/20 12:13:28;;;;;;;34.22;20.67;;;14.00;99.90;;;;;;6095377;23;20026;-82
2022/03/20 12:15:55;;;;;;;31.58;20.08;;;13.50;99.90;;;;;;6094546;23;20029;-83
2022/03/20 12:18:21;;;;;;;36.97;21.90;;;13.30;99.90;;;;;;6094337;23;20015;-88
2022/03/20 12:21:00;;;;;;;40.42;22.13;;;13.00;99.90;;;;;;6094174;23;20024;-83
2022/03/20 12:23:40;;;;;;;32.42;20.65;;;12.60;99.90;;;;;;6068395;23;20026;-83
2022/03/20 12:26:34;;;;;;;47.00;22.77;;;12.50;99.90;;;;;;6094640;23;20022;-82
2022/03/20 12:29:27;;;;;;;36.42;21.65;;;12.60;99.90;;;;;;6094510;23;20485;-83
2022/03/20 12:32:14;;;;;;;33.97;20.08;;;12.70;99.90;;;;;;6033906;23;20402;-83
2022/03/20 12:35:02;;;;;;;35.85;20.60;;;12.60;99.90;;;;;;6092716;23;20105;-82
2022/03/20 12:37:35;;;;;;;31.60;20.55;;;12.50;99.90;;;;;;6025003;23;20018;-82
2022/03/20 12:40:10;;;;;;;35.47;21.40;;;12.50;99.90;;;;;;6095035;23;20307;-84
2022/03/20 12:42:39;;;;;;;36.10;20.05;;;12.40;99.90;;;;;;6093999;23;20027;-83
2022/03/20 12:45:07;;;;;;;35.20;21.42;;;12.40;99.90;;;;;;6094482;23;20041;-83
2022/03/20 12:47:33;;;;;;;36.83;21.50;;;12.30;99.90;;;;;;6093429;23;20022;-82
2022/03/20 12:50:07;;;;;;;37.35;21.48;;;12.30;99.90;;;;;;6094352;23;20073;-83
2022/03/20 12:52:34;;;;;;;41.45;22.15;;;12.20;99.90;;;;;;6068721;23;20031;-83
2022/03/20 12:55:03;;;;;;;33.63;21.27;;;12.20;99.90;;;;;;6068659;23;20026;-83
2022/03/20 12:57:43;;;;;;;34.67;19.75;;;12.20;99.90;;;;;;6094372;23;20018;-82
2022/03/20 13:00:19;;;;;;;36.42;22.10;;;12.20;99.90;;;;;;6094251;23;20090;-84
2022/03/20 13:03:10;;;;;;;37.63;21.50;;;12.20;99.90;;;;;;6067919;23;20445;-82
2022/03/20 13:05:40;;;;;;;31.75;20.13;;;12.10;99.90;;;;;;6067443;23;20026;-83
2022/03/20 13:08:07;;;;;;;37.67;21.33;;;12.20;99.90;;;;;;6094790;23;20050;-83
2022/03/20 13:10:40;;;;;;;33.00;21.00;;;12.40;99.90;;;;;;6093203;23;20026;-86
2022/03/20 13:13:07;;;;;;;50.28;21.70;;;12.60;99.90;;;;;;6093001;23;20200;-83
2022/03/20 13:15:35;;;;;;;37.50;22.95;;;12.70;99.90;;;;;;6092678;23;20318;-83
2022/03/20 13:18:03;;;;;;;32.67;20.67;;;12.90;99.90;;;;;;6094435;23;20101;-83
2022/03/20 13:20:33;;;;;;;36.38;20.30;;;12.90;99.90;;;;;;6094076;23;20011;-82
2022/03/20 13:23:11;;;;;;;35.33;21.55;;;12.80;99.90;;;;;;6095276;23;20044;-82
2022/03/20 13:25:49;;;;;;;35.05;21.10;;;12.70;99.90;;;;;;6094155;23;20050;-83